createdAt,value
2023-01-04T00:02:39.905Z,5.24
2023-01-04T00:06:22.750Z,5.20
2023-01-04T00:10:06.457Z,5.23
2023-01-04T00:13:50.431Z,5.24
2023-01-04T00:17:34.571Z,5.28
2023-01-04T00:21:18.889Z,5.32
2023-01-04T00:25:01.560Z,5.35
2023-01-04T00:28:50.067Z,5.37
2023-01-04T00:32:35.923Z,5.39
2023-01-04T00:36:18.611Z,5.39
2023-01-04T00:40:01.262Z,5.42
2023-01-04T00:43:43.963Z,5.42
2023-01-04T00:47:26.703Z,5.40
2023-01-04T00:51:10.781Z,5.34
2023-01-04T00:54:53.422Z,5.31
2023-01-04T00:58:36.105Z,5.28
2023-01-04T01:02:18.895Z,5.21
2023-01-04T01:06:02.483Z,5.11
2023-01-04T01:09:46.536Z,5.05
2023-01-04T01:13:29.146Z,5.02
2023-01-04T01:17:11.912Z,4.96
2023-01-04T01:20:54.626Z,4.87
2023-01-04T01:24:37.349Z,4.77
2023-01-04T01:28:21.340Z,4.70
2023-01-04T01:32:04.131Z,4.63
2023-01-04T01:35:46.834Z,4.62
2023-01-04T01:39:29.826Z,4.55
2023-01-04T01:43:18.340Z,4.42
2023-01-04T01:47:02.824Z,4.33
2023-01-04T01:50:47.545Z,4.22
2023-01-04T01:54:32.577Z,4.15
2023-01-04T01:58:19.735Z,4.04
2023-01-04T02:02:04.065Z,3.93
2023-01-04T02:05:49.426Z,3.91
2023-01-04T02:09:32.435Z,3.84
2023-01-04T02:13:17.385Z,3.75
2023-01-04T02:17:08.842Z,3.75
2023-01-04T02:20:53.421Z,3.72
2023-01-04T02:24:51.383Z,3.65
2023-01-04T02:28:48.913Z,3.66
2023-01-04T02:32:43.726Z,3.72
2023-01-04T02:36:31.971Z,3.81
2023-01-04T02:40:19.629Z,3.91
2023-01-04T02:44:24.921Z,4.00
2023-01-04T02:48:27.277Z,4.11
2023-01-04T02:52:10.072Z,4.19
2023-01-04T02:55:57.746Z,4.22
2023-01-04T03:00:01.887Z,4.26
2023-01-04T03:04:09.828Z,4.33
2023-01-04T03:07:56.044Z,4.49
2023-01-04T03:12:00.184Z,4.54
2023-01-04T03:15:44.039Z,4.64
2023-01-04T03:19:42.446Z,4.62
2023-01-04T03:23:45.857Z,4.63
2023-01-04T03:27:46.222Z,4.62
2023-01-04T03:32:05.304Z,4.68
2023-01-04T03:35:56.655Z,4.63
2023-01-04T03:40:11.271Z,4.55
2023-01-04T03:44:13.094Z,4.57
2023-01-04T03:48:19.099Z,4.58
2023-01-04T03:52:05.007Z,4.62
2023-01-04T03:55:48.069Z,4.59
2023-01-04T03:59:32.316Z,4.58
2023-01-04T04:03:15.013Z,4.48
2023-01-04T04:07:15.412Z,4.34
2023-01-04T04:11:22.015Z,4.31
2023-01-04T04:15:05.272Z,4.22
2023-01-04T04:18:48.553Z,4.17
2023-01-04T04:22:31.149Z,4.13
2023-01-04T04:26:15.210Z,4.09
2023-01-04T04:29:57.883Z,4.07
2023-01-04T04:33:40.850Z,4.01
2023-01-04T04:37:23.498Z,3.92
2023-01-04T04:41:28.187Z,3.89
2023-01-04T04:45:12.560Z,3.81
2023-01-04T04:48:55.316Z,3.84
2023-01-04T04:52:37.979Z,3.85
2023-01-04T04:56:20.757Z,3.74
2023-01-04T05:00:03.994Z,3.73
2023-01-04T05:03:48.540Z,3.73
2023-01-04T05:07:31.257Z,3.67
2023-01-04T05:11:14.592Z,3.68
2023-01-04T05:14:56.236Z,3.67
2023-01-04T05:18:38.906Z,3.74
2023-01-04T05:22:22.964Z,3.75
2023-01-04T05:26:05.925Z,3.74
2023-01-04T05:30:06.348Z,3.79
2023-01-04T05:33:51.489Z,3.83
2023-01-04T05:37:35.563Z,3.90
2023-01-04T05:41:35.811Z,3.90
2023-01-04T05:45:19.496Z,3.85
2023-01-04T05:49:02.133Z,3.75
2023-01-04T05:52:46.248Z,3.73
2023-01-04T05:56:28.890Z,3.75
2023-01-04T06:00:13.711Z,3.84
2023-01-04T06:03:56.445Z,3.91
2023-01-04T06:07:39.363Z,3.91
2023-01-04T06:11:27.533Z,3.96
2023-01-04T06:15:11.966Z,4.01
2023-01-04T06:18:54.687Z,4.13
2023-01-04T06:22:37.792Z,4.23
2023-01-04T06:26:20.556Z,4.28
2023-01-04T06:30:05.210Z,4.42
2023-01-04T06:33:47.863Z,4.42
2023-01-04T06:37:30.498Z,4.45
2023-01-04T06:41:13.145Z,4.49
2023-01-04T06:44:55.800Z,4.56
2023-01-04T06:48:39.801Z,4.49
2023-01-04T06:52:24.095Z,4.38
2023-01-04T06:56:09.152Z,4.42
2023-01-04T06:59:52.158Z,4.41
2023-01-04T07:03:35.043Z,4.39
2023-01-04T07:07:19.079Z,4.34
2023-01-04T07:11:01.803Z,4.27
2023-01-04T07:14:44.467Z,4.20
2023-01-04T07:18:27.130Z,4.28
2023-01-04T07:22:09.850Z,4.33
2023-01-04T07:25:53.840Z,4.30
2023-01-04T07:29:36.540Z,4.40
2023-01-04T07:33:19.241Z,4.44
2023-01-04T07:37:01.927Z,4.43
2023-01-04T07:40:56.270Z,4.45
2023-01-04T07:44:41.112Z,4.46
2023-01-04T07:48:23.898Z,4.49
2023-01-04T07:52:06.605Z,4.50
2023-01-04T07:55:49.265Z,4.54
2023-01-04T07:59:34.519Z,4.58
2023-01-04T08:03:18.698Z,4.60
2023-01-04T08:07:01.371Z,4.71
2023-01-04T08:10:44.093Z,4.75
2023-01-04T08:14:26.809Z,4.85
2023-01-04T08:18:09.461Z,4.94
2023-01-04T08:21:53.695Z,5.00
2023-01-04T08:25:36.436Z,5.22
2023-01-04T08:29:19.191Z,5.24
2023-01-04T08:33:01.852Z,5.38
2023-01-04T08:36:50.089Z,5.54
2023-01-04T08:40:58.201Z,5.65
2023-01-04T08:44:36.886Z,5.65
2023-01-04T08:48:24.533Z,5.81
2023-01-04T08:52:09.151Z,5.87
2023-01-04T08:55:53.752Z,6.02
2023-01-04T08:59:36.485Z,6.07
2023-01-04T09:03:19.492Z,6.20
2023-01-04T09:07:02.520Z,6.34
2023-01-04T09:10:45.197Z,6.38
2023-01-04T09:14:29.343Z,6.28
2023-01-04T09:18:30.911Z,6.44
2023-01-04T09:22:14.910Z,6.45
2023-01-04T09:25:57.633Z,6.56
2023-01-04T09:29:42.389Z,6.62
2023-01-04T09:33:47.702Z,6.76
2023-01-04T09:37:28.770Z,6.88
2023-01-04T09:41:19.694Z,7.07
2023-01-04T09:45:23.815Z,7.34
2023-01-04T09:49:16.258Z,7.43
2023-01-04T09:53:06.037Z,7.66
2023-01-04T09:56:52.674Z,7.83
2023-01-04T10:00:43.966Z,7.90
2023-01-04T10:04:30.567Z,8.00
2023-01-04T10:08:16.435Z,8.02
2023-01-04T10:12:10.489Z,8.05
2023-01-04T10:15:58.641Z,8.21
2023-01-04T10:24:11.027Z,8.29
2023-01-04T10:28:04.735Z,8.50
2023-01-04T10:31:52.405Z,8.55
2023-01-04T10:35:36.681Z,8.57
2023-01-04T10:39:21.816Z,8.76
2023-01-04T10:43:08.791Z,8.72
2023-01-04T10:46:57.917Z,8.78
2023-01-04T10:50:49.711Z,8.70
2023-01-04T10:54:36.614Z,8.68
2023-01-04T10:58:23.761Z,8.64
2023-01-04T11:02:17.103Z,8.52
2023-01-04T11:06:02.868Z,8.54
2023-01-04T11:09:48.238Z,8.61
2023-01-04T11:13:31.226Z,8.73
2023-01-04T11:17:15.572Z,8.76
2023-01-04T11:20:58.781Z,9.39
2023-01-04T11:24:54.504Z,10.03
2023-01-04T11:28:47.784Z,9.72
2023-01-04T11:32:37.405Z,9.42
2023-01-04T11:36:34.897Z,9.21
2023-01-04T11:40:23.574Z,9.21
2023-01-04T11:44:08.687Z,9.13
2023-01-04T11:47:54.397Z,9.17
2023-01-04T11:51:39.680Z,9.18
2023-01-04T11:55:26.096Z,9.21
2023-01-04T11:59:24.561Z,9.25
2023-01-04T12:03:14.610Z,9.26
2023-01-04T12:07:00.488Z,9.27
2023-01-04T12:10:43.798Z,9.45
2023-01-04T12:14:28.257Z,9.49
2023-01-04T12:18:17.763Z,9.57
2023-01-04T12:22:02.469Z,9.54
2023-01-04T12:25:46.465Z,9.50
2023-01-04T12:29:54.165Z,9.60
2023-01-04T12:33:41.460Z,9.61
2023-01-04T12:37:49.285Z,9.55
2023-01-04T12:42:05.496Z,9.68
2023-01-04T12:46:08.852Z,9.70
2023-01-04T12:50:00.072Z,9.76
2023-01-04T12:53:57.982Z,9.82
2023-01-04T12:57:41.158Z,9.82
2023-01-04T13:01:26.325Z,9.92
2023-01-04T13:09:46.536Z,9.92
2023-01-04T13:13:36.904Z,10.02
2023-01-04T13:17:22.302Z,10.09
2023-01-04T13:21:12.642Z,10.13
2023-01-04T13:24:57.873Z,10.21
2023-01-04T13:28:40.716Z,10.20
2023-01-04T13:32:25.009Z,10.16
2023-01-04T13:36:12.859Z,10.19
2023-01-04T13:40:03.309Z,10.21
2023-01-04T13:43:54.886Z,10.21
2023-01-04T13:47:39.311Z,10.17
2023-01-04T13:51:33.962Z,10.13
2023-01-04T13:55:21.943Z,10.10
2023-01-04T13:59:04.619Z,10.17
2023-01-04T14:02:47.689Z,10.23
2023-01-04T14:06:33.241Z,10.26
2023-01-04T14:10:19.172Z,10.20
2023-01-04T14:14:01.994Z,10.17
2023-01-04T14:17:49.636Z,10.26
2023-01-04T14:21:37.779Z,10.33
2023-01-04T14:25:43.516Z,10.27
2023-01-04T14:29:33.439Z,10.26
2023-01-04T14:33:18.577Z,10.24
2023-01-04T14:37:05.367Z,10.19
2023-01-04T14:40:48.116Z,10.21
2023-01-04T14:44:32.011Z,10.21
2023-01-04T14:48:18.560Z,10.17
2023-01-04T14:52:12.144Z,10.20
2023-01-04T14:55:55.544Z,10.22
2023-01-04T14:59:38.430Z,10.20
2023-01-04T15:03:21.274Z,10.13
2023-01-04T15:07:04.054Z,10.31
2023-01-04T15:10:51.126Z,10.37
2023-01-04T15:14:36.234Z,10.49
2023-01-04T15:18:19.185Z,10.47
2023-01-04T15:22:01.956Z,10.43
2023-01-04T15:25:44.766Z,10.34
2023-01-04T15:29:28.826Z,10.26
2023-01-04T15:33:11.737Z,10.24
2023-01-04T15:36:55.712Z,10.09
2023-01-04T15:40:38.535Z,10.10
2023-01-04T15:44:21.264Z,10.06
2023-01-04T15:48:05.952Z,9.99
2023-01-04T15:51:48.664Z,10.05
2023-01-04T15:55:36.390Z,10.00
2023-01-04T15:59:19.526Z,9.97
2023-01-04T16:03:05.292Z,9.93
2023-01-04T16:06:49.436Z,9.90
2023-01-04T16:10:32.180Z,9.83
2023-01-04T16:14:14.983Z,9.86
2023-01-04T16:17:57.675Z,9.81
2023-01-04T16:21:40.411Z,9.82
2023-01-04T16:25:24.452Z,9.82
2023-01-04T16:29:07.146Z,9.84
2023-01-04T16:32:51.844Z,9.84
2023-01-04T16:36:34.585Z,9.85
2023-01-04T16:40:17.316Z,9.79
2023-01-04T16:44:02.284Z,9.68
2023-01-04T16:47:46.034Z,9.70
2023-01-04T16:51:30.662Z,9.67
2023-01-04T16:55:14.429Z,9.62
2023-01-04T16:58:59.119Z,9.64
2023-01-04T17:02:43.378Z,9.60
2023-01-04T17:06:27.440Z,9.56
2023-01-04T17:10:10.632Z,9.52
2023-01-04T17:13:53.419Z,9.47
2023-01-04T17:17:36.266Z,9.47
2023-01-04T17:21:33.790Z,9.47
2023-01-04T17:25:17.612Z,9.47
2023-01-04T17:29:01.811Z,9.52
2023-01-04T17:32:44.725Z,9.91
2023-01-04T17:36:28.782Z,9.74
2023-01-04T17:40:19.022Z,9.66
2023-01-04T17:44:06.703Z,9.54
2023-01-04T17:47:49.837Z,9.48
2023-01-04T17:51:33.927Z,9.41
2023-01-04T17:55:16.831Z,9.39
2023-01-04T17:59:01.078Z,9.40
2023-01-04T18:02:44.460Z,9.33
2023-01-04T18:06:28.539Z,9.36
2023-01-04T18:10:27.218Z,9.38
2023-01-04T18:14:21.172Z,9.37
2023-01-04T18:18:03.923Z,9.36
2023-01-04T18:21:47.018Z,9.39
2023-01-04T18:25:31.089Z,9.38
2023-01-04T18:29:13.823Z,9.33
2023-01-04T18:32:56.516Z,9.35
2023-01-04T18:36:42.694Z,9.35
2023-01-04T18:40:25.618Z,9.30
2023-01-04T18:44:31.988Z,9.30
2023-01-04T18:48:13.658Z,9.27
2023-01-04T18:51:56.263Z,9.28
2023-01-04T18:55:39.289Z,9.33
2023-01-04T18:59:24.330Z,9.32
2023-01-04T19:03:07.384Z,9.31
2023-01-04T19:06:50.337Z,9.32
2023-01-04T19:10:33.028Z,9.36
2023-01-04T19:14:16.067Z,9.34
2023-01-04T19:18:00.128Z,9.40
2023-01-04T19:21:43.060Z,9.40
2023-01-04T19:25:28.501Z,9.42
2023-01-04T19:29:11.549Z,9.43
2023-01-04T19:32:54.340Z,9.47
2023-01-04T19:36:38.842Z,9.47
2023-01-04T19:40:21.632Z,9.48
2023-01-04T19:44:05.365Z,9.54
2023-01-04T19:47:50.565Z,9.51
2023-01-04T19:51:33.234Z,9.54
2023-01-04T19:55:18.566Z,9.57
2023-01-04T19:59:01.739Z,9.62
2023-01-04T20:02:44.817Z,9.66
2023-01-04T20:06:28.167Z,9.69
2023-01-04T20:10:14.407Z,9.75
2023-01-04T20:13:58.874Z,9.79
2023-01-04T20:17:42.176Z,9.91
2023-01-04T20:21:25.200Z,9.96
2023-01-04T20:25:08.665Z,10.01
2023-01-04T20:28:53.245Z,10.04
2023-01-04T20:32:38.151Z,10.12
2023-01-04T20:36:22.930Z,10.20
2023-01-04T20:40:06.571Z,10.21
2023-01-04T20:43:49.734Z,10.23
2023-01-04T20:47:32.446Z,10.27
2023-01-04T20:51:18.664Z,10.31
2023-01-04T20:55:01.417Z,10.33
2023-01-04T20:58:44.755Z,10.37
2023-01-04T21:02:27.701Z,10.41
2023-01-04T21:06:12.890Z,10.46
2023-01-04T21:09:56.932Z,10.52
2023-01-04T21:13:40.098Z,10.57
2023-01-04T21:17:24.106Z,10.58
2023-01-04T21:21:07.749Z,10.63
2023-01-04T21:24:50.500Z,10.94
2023-01-04T21:28:36.680Z,11.20
2023-01-04T21:32:19.465Z,11.03
2023-01-04T21:36:10.131Z,10.86
2023-01-04T21:39:52.848Z,10.75
2023-01-04T21:43:37.142Z,10.51
2023-01-04T21:47:19.858Z,10.39
2023-01-04T21:51:03.300Z,10.23
2023-01-04T21:54:45.968Z,10.08
2023-01-04T21:58:29.242Z,9.95
2023-01-04T22:02:15.834Z,9.86
2023-01-04T22:06:02.004Z,9.75
2023-01-04T22:09:44.711Z,9.66
2023-01-04T22:13:28.261Z,9.57
2023-01-04T22:17:10.974Z,9.50
2023-01-04T22:21:03.839Z,9.41
2023-01-04T22:24:46.587Z,9.37
2023-01-04T22:28:36.311Z,9.31
2023-01-04T22:32:19.317Z,9.26
2023-01-04T22:36:06.164Z,9.20
2023-01-04T22:39:48.885Z,9.14
2023-01-04T22:43:31.582Z,9.03
2023-01-04T22:47:14.230Z,9.03
2023-01-04T22:50:59.870Z,8.99
2023-01-04T22:54:48.553Z,8.92
2023-01-04T22:58:31.259Z,8.87
2023-01-04T23:02:14.689Z,8.96
2023-01-04T23:05:57.380Z,9.00
2023-01-04T23:09:42.291Z,9.06
2023-01-04T23:13:26.244Z,9.11
2023-01-04T23:17:08.867Z,9.17
2023-01-04T23:20:54.381Z,9.22
2023-01-04T23:24:38.004Z,9.31
2023-01-04T23:28:21.167Z,9.40
2023-01-04T23:32:05.619Z,9.37
2023-01-04T23:35:48.496Z,9.43
2023-01-04T23:39:31.179Z,9.45
2023-01-04T23:43:16.522Z,9.49
2023-01-04T23:47:01.074Z,9.56
2023-01-04T23:50:45.116Z,9.60
2023-01-04T23:54:30.905Z,9.63
2023-01-04T23:58:13.722Z,9.65
